createdAt,value
2022-10-09T00:00:01.557Z,6.90
2022-10-09T00:02:50.792Z,8.40
2022-10-09T00:05:39.813Z,15.03
2022-10-09T00:08:28.874Z,8.73
2022-10-09T00:11:18.774Z,8.83
2022-10-09T00:14:07.773Z,9.50
2022-10-09T00:16:58.162Z,8.30
2022-10-09T00:19:47.035Z,8.73
2022-10-09T00:22:36.198Z,8.97
2022-10-09T00:25:25.444Z,12.43
2022-10-09T00:28:14.531Z,9.40
2022-10-09T00:31:05.658Z,9.17
2022-10-09T00:33:55.895Z,9.97
2022-10-09T00:36:44.708Z,10.80
2022-10-09T00:39:33.856Z,10.30
2022-10-09T00:42:22.695Z,9.07
2022-10-09T00:45:18.886Z,9.30
2022-10-09T00:48:08.669Z,12.67
2022-10-09T00:50:59.951Z,9.10
2022-10-09T00:53:49.807Z,10.43
2022-10-09T00:56:38.658Z,12.33
2022-10-09T00:59:28.095Z,12.40
2022-10-09T01:02:17.007Z,8.77
2022-10-09T01:05:06.451Z,11.53
2022-10-09T01:08:00.811Z,9.40
2022-10-09T01:10:51.847Z,12.07
2022-10-09T01:13:44.735Z,12.70
2022-10-09T01:16:36.080Z,11.00
2022-10-09T01:19:34.285Z,10.13
2022-10-09T01:22:29.338Z,12.70
2022-10-09T01:25:21.599Z,10.33
2022-10-09T01:28:12.657Z,7.63
2022-10-09T01:31:03.097Z,10.00
2022-10-09T01:33:52.359Z,10.07
2022-10-09T01:36:41.458Z,8.90
2022-10-09T01:39:31.602Z,10.60
2022-10-09T01:42:21.931Z,8.30
2022-10-09T01:45:13.101Z,9.73
2022-10-09T01:48:01.914Z,10.10
2022-10-09T01:50:54.912Z,10.77
2022-10-09T01:53:45.435Z,8.50
2022-10-09T01:56:36.269Z,9.07
2022-10-09T01:59:25.946Z,11.90
2022-10-09T02:02:16.282Z,9.57
2022-10-09T02:05:05.569Z,9.20
2022-10-09T02:07:55.107Z,10.20
2022-10-09T02:10:45.359Z,10.33
2022-10-09T02:13:34.651Z,9.13
2022-10-09T02:16:24.611Z,10.50
2022-10-09T02:19:18.297Z,9.50
2022-10-09T02:22:09.815Z,9.70
2022-10-09T02:24:59.240Z,9.70
2022-10-09T02:27:48.601Z,9.20
2022-10-09T02:30:49.945Z,10.53
2022-10-09T02:33:38.843Z,9.07
2022-10-09T02:36:29.077Z,10.33
2022-10-09T02:39:17.951Z,8.60
2022-10-09T02:42:06.858Z,9.00
2022-10-09T02:44:55.745Z,9.70
2022-10-09T02:47:44.582Z,8.80
2022-10-09T02:50:33.409Z,8.57
2022-10-09T02:53:23.581Z,9.03
2022-10-09T02:56:12.661Z,10.63
2022-10-09T02:59:01.577Z,7.27
2022-10-09T03:01:50.530Z,7.60
2022-10-09T03:04:39.404Z,7.77
2022-10-09T03:07:28.266Z,10.20
2022-10-09T03:10:19.901Z,10.37
2022-10-09T03:13:09.397Z,9.07
2022-10-09T03:16:03.873Z,10.30
2022-10-09T03:18:53.075Z,9.17
2022-10-09T03:21:41.929Z,11.00
2022-10-09T03:24:30.830Z,10.10
2022-10-09T03:27:21.031Z,9.47
2022-10-09T03:30:10.597Z,10.40
2022-10-09T03:33:02.312Z,8.90
2022-10-09T03:35:51.699Z,12.67
2022-10-09T03:38:40.574Z,10.80
2022-10-09T03:41:29.434Z,9.20
2022-10-09T03:44:19.853Z,7.03
2022-10-09T03:47:12.013Z,12.53
2022-10-09T03:50:00.833Z,8.23
2022-10-09T03:52:50.072Z,7.27
2022-10-09T03:55:39.458Z,9.10
2022-10-09T03:58:28.303Z,9.73
2022-10-09T04:01:18.616Z,8.33
2022-10-09T04:04:07.842Z,7.90
2022-10-09T04:06:56.655Z,7.23
2022-10-09T04:09:45.486Z,10.50
2022-10-09T04:12:34.319Z,12.50
2022-10-09T04:15:23.212Z,8.50
2022-10-09T04:18:13.379Z,8.77
2022-10-09T04:21:02.270Z,8.10
2022-10-09T04:23:52.143Z,6.63
2022-10-09T04:26:40.988Z,9.50
2022-10-09T04:29:30.230Z,9.40
2022-10-09T04:32:19.029Z,7.53
2022-10-09T04:35:09.808Z,8.90
2022-10-09T04:37:58.716Z,8.70
2022-10-09T04:40:56.622Z,7.83
2022-10-09T04:43:45.523Z,10.80
2022-10-09T04:46:34.582Z,8.77
2022-10-09T04:49:23.412Z,11.10
2022-10-09T04:52:13.853Z,7.97
2022-10-09T04:55:02.705Z,8.20
2022-10-09T04:57:51.575Z,8.90
2022-10-09T05:00:41.511Z,7.23
2022-10-09T05:03:30.945Z,8.40
2022-10-09T05:06:20.189Z,7.23
2022-10-09T05:09:10.358Z,8.93
2022-10-09T05:11:59.299Z,7.27
2022-10-09T05:14:48.135Z,10.77
2022-10-09T05:17:37.034Z,8.27
2022-10-09T05:20:25.962Z,10.77
2022-10-09T05:23:14.769Z,8.47
2022-10-09T05:26:06.174Z,8.90
2022-10-09T05:28:55.014Z,7.50
2022-10-09T05:31:49.177Z,10.33
2022-10-09T05:34:38.460Z,8.67
2022-10-09T05:37:27.303Z,8.53
2022-10-09T05:40:16.143Z,11.87
2022-10-09T05:43:06.312Z,9.83
2022-10-09T05:45:55.444Z,10.20
2022-10-09T05:48:45.168Z,8.97
2022-10-09T05:51:34.674Z,9.87
2022-10-09T05:54:23.506Z,9.73
2022-10-09T05:57:12.439Z,10.10
2022-10-09T06:00:02.737Z,13.60
2022-10-09T06:02:51.964Z,10.40
2022-10-09T06:05:41.142Z,11.00
2022-10-09T06:08:30.193Z,11.53
2022-10-09T06:11:19.995Z,12.73
2022-10-09T06:14:09.666Z,10.40
2022-10-09T06:17:01.383Z,11.47
2022-10-09T06:19:50.258Z,11.60
2022-10-09T06:22:39.060Z,15.27
2022-10-09T06:25:27.984Z,12.30
2022-10-09T06:28:16.931Z,12.73
2022-10-09T06:31:06.915Z,14.23
2022-10-09T06:33:57.603Z,10.97
2022-10-09T06:36:46.445Z,17.27
2022-10-09T06:39:35.369Z,12.10
2022-10-09T06:42:24.190Z,13.40
2022-10-09T06:45:13.008Z,11.60
2022-10-09T06:48:01.818Z,13.23
2022-10-09T06:50:52.010Z,12.13
2022-10-09T06:53:41.750Z,12.03
2022-10-09T06:56:31.594Z,9.63
2022-10-09T06:59:20.803Z,10.37
2022-10-09T07:02:10.442Z,10.67
2022-10-09T07:04:59.366Z,10.67
2022-10-09T07:07:49.593Z,12.70
2022-10-09T07:10:38.427Z,8.77
2022-10-09T07:13:27.297Z,7.30
2022-10-09T07:16:19.923Z,6.30
2022-10-09T07:19:10.985Z,4.80
2022-10-09T07:21:59.819Z,5.60
2022-10-09T07:24:50.639Z,6.93
2022-10-09T07:27:39.490Z,8.00
2022-10-09T07:30:28.294Z,4.60
2022-10-09T07:33:17.211Z,3.63
2022-10-09T07:36:07.366Z,5.90
2022-10-09T07:38:57.229Z,5.37
2022-10-09T07:41:48.619Z,7.40
2022-10-09T07:44:37.446Z,6.60
2022-10-09T07:47:26.274Z,4.60
2022-10-09T07:50:15.190Z,8.60
2022-10-09T07:53:04.049Z,8.33
2022-10-09T07:55:52.894Z,4.90
2022-10-09T07:58:43.152Z,6.40
2022-10-09T08:01:33.238Z,7.90
2022-10-09T08:04:22.222Z,4.63
2022-10-09T08:07:11.119Z,4.27
2022-10-09T08:09:59.966Z,4.50
2022-10-09T08:12:48.967Z,8.60
2022-10-09T08:15:43.010Z,4.70
2022-10-09T08:18:32.014Z,7.17
2022-10-09T08:21:21.186Z,7.30
2022-10-09T08:24:12.282Z,5.80
2022-10-09T08:27:01.396Z,5.70
2022-10-09T08:29:50.176Z,4.43
2022-10-09T08:32:41.360Z,5.70
2022-10-09T08:35:34.420Z,7.90
2022-10-09T08:38:46.196Z,6.10
2022-10-09T08:41:46.201Z,4.30
2022-10-09T08:44:36.464Z,6.80
2022-10-09T08:47:27.968Z,5.93
2022-10-09T08:50:20.127Z,9.63
2022-10-09T08:53:11.256Z,6.57
2022-10-09T08:56:01.075Z,8.07
2022-10-09T08:58:49.907Z,5.78
2022-10-09T09:01:41.437Z,3.25
2022-10-09T09:04:37.143Z,4.43
2022-10-09T09:07:30.844Z,5.25
2022-10-09T09:10:26.355Z,4.32
2022-10-09T09:13:21.141Z,4.18
2022-10-09T09:16:13.910Z,4.38
2022-10-09T09:19:11.348Z,6.13
2022-10-09T09:22:00.614Z,4.13
2022-10-09T09:24:52.812Z,5.53
2022-10-09T09:27:42.587Z,3.60
2022-10-09T09:30:34.921Z,3.90
2022-10-09T09:33:26.544Z,6.28
2022-10-09T09:36:18.552Z,4.10
2022-10-09T09:42:19.663Z,5.25
2022-10-09T09:45:09.693Z,4.43
2022-10-09T09:48:01.220Z,5.05
2022-10-09T09:51:10.104Z,5.10
2022-10-09T09:54:04.242Z,4.45
2022-10-09T09:57:11.861Z,5.60
2022-10-09T10:00:19.674Z,3.65
2022-10-09T10:03:14.581Z,7.78
2022-10-09T10:06:03.861Z,6.55
2022-10-09T10:08:59.764Z,3.60
2022-10-09T10:11:49.995Z,4.47
2022-10-09T10:14:38.891Z,5.03
2022-10-09T10:17:31.939Z,4.88
2022-10-09T10:20:20.943Z,3.35
2022-10-09T10:23:22.530Z,3.95
2022-10-09T10:26:16.446Z,3.45
2022-10-09T10:29:07.574Z,4.68
2022-10-09T10:32:00.223Z,6.28
2022-10-09T10:34:53.363Z,6.25
2022-10-09T10:37:44.646Z,5.15
2022-10-09T10:40:36.446Z,3.20
2022-10-09T10:43:30.950Z,3.33
2022-10-09T10:46:24.418Z,4.53
2022-10-09T10:49:13.549Z,3.53
2022-10-09T10:52:09.616Z,3.75
2022-10-09T10:55:01.623Z,4.03
2022-10-09T10:57:54.204Z,3.47
2022-10-09T11:00:45.703Z,4.10
2022-10-09T11:03:42.089Z,4.88
2022-10-09T11:06:35.004Z,3.03
2022-10-09T11:09:29.034Z,3.30
2022-10-09T11:12:43.254Z,3.25
2022-10-09T11:15:37.475Z,4.05
2022-10-09T11:18:31.383Z,5.80
2022-10-09T11:21:24.920Z,4.57
2022-10-09T11:24:19.834Z,4.50
2022-10-09T11:27:12.594Z,4.07
2022-10-09T11:30:03.415Z,4.00
2022-10-09T11:32:55.931Z,2.60
2022-10-09T11:35:46.783Z,2.55
2022-10-09T11:38:38.745Z,2.53
2022-10-09T11:41:28.330Z,4.10
2022-10-09T11:44:26.400Z,2.60
2022-10-09T11:47:20.391Z,2.75
2022-10-09T11:50:15.994Z,4.65
2022-10-09T11:53:06.838Z,3.95
2022-10-09T11:56:03.306Z,3.85
2022-10-09T11:58:58.777Z,4.07
2022-10-09T12:01:48.920Z,4.00
2022-10-09T12:04:56.163Z,3.28
2022-10-09T12:07:45.115Z,2.20
2022-10-09T12:10:34.893Z,4.85
2022-10-09T12:13:42.608Z,2.53
2022-10-09T12:16:37.711Z,3.75
2022-10-09T12:19:29.342Z,3.70
2022-10-09T12:22:19.890Z,3.80
2022-10-09T12:25:10.334Z,2.95
2022-10-09T12:28:00.358Z,1.95
2022-10-09T12:30:50.451Z,1.95
2022-10-09T12:33:41.175Z,1.67
2022-10-09T12:36:32.440Z,3.53
2022-10-09T12:39:22.202Z,6.38
2022-10-09T12:42:16.189Z,3.65
2022-10-09T12:45:05.686Z,3.08
2022-10-09T12:47:55.426Z,3.10
2022-10-09T12:50:44.366Z,2.53
2022-10-09T12:53:34.652Z,3.92
2022-10-09T12:56:26.277Z,3.88
2022-10-09T12:59:15.758Z,2.35
2022-10-09T13:02:04.771Z,3.72
2022-10-09T13:04:58.037Z,1.38
2022-10-09T13:07:52.021Z,3.17
2022-10-09T13:10:42.472Z,4.28
2022-10-09T13:13:31.625Z,3.88
2022-10-09T13:16:20.646Z,5.45
2022-10-09T13:19:21.707Z,7.05
2022-10-09T13:22:20.326Z,2.78
2022-10-09T13:25:10.788Z,2.85
2022-10-09T13:28:00.979Z,7.15
2022-10-09T13:30:49.999Z,3.25
2022-10-09T13:33:38.902Z,3.50
2022-10-09T13:36:27.792Z,3.13
2022-10-09T13:39:16.634Z,2.92
2022-10-09T13:42:05.630Z,2.72
2022-10-09T13:44:55.859Z,2.38
2022-10-09T13:47:44.656Z,6.00
2022-10-09T13:50:33.578Z,3.28
2022-10-09T13:53:22.475Z,2.22
2022-10-09T13:56:11.352Z,4.28
2022-10-09T13:59:00.254Z,5.63
2022-10-09T14:01:50.595Z,5.70
2022-10-09T14:04:39.528Z,2.35
2022-10-09T14:07:28.433Z,3.15
2022-10-09T14:10:21.743Z,2.83
2022-10-09T14:13:14.434Z,1.42
2022-10-09T14:16:05.550Z,4.72
2022-10-09T14:18:57.754Z,4.10
2022-10-09T14:21:47.540Z,1.48
2022-10-09T14:24:36.483Z,3.13
2022-10-09T14:27:25.360Z,3.15
2022-10-09T14:30:14.598Z,2.40
2022-10-09T14:33:03.490Z,1.40
2022-10-09T14:35:53.734Z,2.15
2022-10-09T14:38:43.027Z,3.30
2022-10-09T14:41:36.790Z,3.00
2022-10-09T14:44:26.612Z,2.42
2022-10-09T14:47:15.522Z,1.92
2022-10-09T14:50:04.436Z,3.15
2022-10-09T14:52:54.672Z,2.78
2022-10-09T14:55:43.753Z,1.92
2022-10-09T14:58:32.642Z,2.45
2022-10-09T15:01:22.406Z,3.15
2022-10-09T15:04:11.373Z,2.72
2022-10-09T15:07:02.332Z,2.60
2022-10-09T15:09:52.494Z,2.65
2022-10-09T15:12:42.395Z,3.95
2022-10-09T15:15:32.761Z,2.50
2022-10-09T15:18:21.711Z,4.57
2022-10-09T15:21:13.094Z,2.17
2022-10-09T15:24:03.455Z,1.85
2022-10-09T15:26:54.182Z,1.95
2022-10-09T15:29:43.469Z,3.90
2022-10-09T15:32:32.310Z,2.80
2022-10-09T15:35:21.140Z,1.40
2022-10-09T15:38:13.880Z,2.30
2022-10-09T15:41:02.893Z,2.20
2022-10-09T15:43:54.549Z,2.60
2022-10-09T15:46:43.486Z,2.63
2022-10-09T15:49:32.420Z,4.60
2022-10-09T15:52:21.497Z,2.70
2022-10-09T15:55:10.482Z,2.30
2022-10-09T15:57:59.421Z,2.00
2022-10-09T16:00:50.871Z,1.57
2022-10-09T16:03:39.789Z,4.20
2022-10-09T16:06:28.679Z,3.77
2022-10-09T16:09:17.626Z,2.50
2022-10-09T16:12:06.802Z,2.97
2022-10-09T16:14:55.718Z,3.87
2022-10-09T16:17:48.739Z,4.00
2022-10-09T16:20:37.849Z,6.60
2022-10-09T16:23:26.735Z,4.50
2022-10-09T16:26:16.580Z,4.30
2022-10-09T16:29:05.445Z,4.20
2022-10-09T16:31:56.331Z,6.73
2022-10-09T16:34:46.661Z,5.00
2022-10-09T16:37:35.787Z,6.20
2022-10-09T16:40:37.510Z,7.60
2022-10-09T16:43:34.750Z,7.83
2022-10-09T16:46:24.908Z,17.67
2022-10-09T16:49:20.051Z,22.20
2022-10-09T16:52:13.162Z,27.40
2022-10-09T16:55:02.078Z,18.23
2022-10-09T16:57:51.175Z,16.30
2022-10-09T17:00:40.214Z,21.73
2022-10-09T17:03:29.346Z,19.70
2022-10-09T17:06:20.420Z,24.07
2022-10-09T17:09:14.063Z,29.10
2022-10-09T17:12:03.618Z,22.93
2022-10-09T17:14:52.531Z,23.10
2022-10-09T17:17:41.526Z,15.87
2022-10-09T17:20:30.402Z,12.40
2022-10-09T17:23:19.293Z,13.53
2022-10-09T17:26:09.997Z,7.17
2022-10-09T17:28:59.341Z,6.90
2022-10-09T17:31:48.362Z,6.97
2022-10-09T17:34:42.881Z,4.57
2022-10-09T17:37:31.813Z,5.23
2022-10-09T17:40:20.752Z,5.10
2022-10-09T17:43:10.939Z,6.50
2022-10-09T17:46:00.477Z,5.53
2022-10-09T17:48:53.082Z,5.00
2022-10-09T17:51:41.988Z,5.33
2022-10-09T17:54:30.886Z,4.00
2022-10-09T17:57:20.033Z,5.43
2022-10-09T18:00:11.274Z,4.27
2022-10-09T18:03:00.140Z,4.73
2022-10-09T18:05:50.031Z,5.60
2022-10-09T18:08:39.041Z,5.07
2022-10-09T18:11:28.424Z,5.07
2022-10-09T18:14:17.354Z,6.30
2022-10-09T18:17:07.632Z,6.80
2022-10-09T18:19:56.555Z,7.60
2022-10-09T18:22:45.429Z,5.73
2022-10-09T18:25:34.584Z,8.40
2022-10-09T18:28:23.623Z,5.40
2022-10-09T18:31:13.689Z,6.10
2022-10-09T18:34:03.967Z,5.97
2022-10-09T18:36:52.880Z,7.27
2022-10-09T18:39:41.773Z,7.50
2022-10-09T18:42:30.627Z,5.80
2022-10-09T18:45:19.609Z,8.73
2022-10-09T18:48:08.913Z,11.17
2022-10-09T18:50:59.770Z,10.07
2022-10-09T18:53:50.187Z,8.63
2022-10-09T18:56:39.426Z,9.07
2022-10-09T18:59:28.665Z,8.43
2022-10-09T19:02:17.614Z,7.23
2022-10-09T19:05:06.721Z,9.47
2022-10-09T19:07:56.964Z,8.20
2022-10-09T19:10:50.902Z,8.97
2022-10-09T19:13:39.740Z,7.67
2022-10-09T19:16:29.161Z,7.70
2022-10-09T19:19:18.094Z,8.13
2022-10-09T19:22:08.180Z,8.00
2022-10-09T19:24:59.157Z,10.33
2022-10-09T19:27:48.311Z,9.23
2022-10-09T19:30:40.421Z,8.97
2022-10-09T19:33:29.238Z,10.50
2022-10-09T19:36:18.214Z,9.50
2022-10-09T19:39:08.756Z,8.07
2022-10-09T19:41:58.931Z,7.73
2022-10-09T19:44:48.088Z,7.83
2022-10-09T19:47:36.927Z,8.60
2022-10-09T19:50:25.794Z,9.10
2022-10-09T19:53:15.031Z,7.33
2022-10-09T19:56:04.185Z,8.67
2022-10-09T19:58:55.090Z,7.70
2022-10-09T20:01:43.973Z,7.67
2022-10-09T20:04:32.868Z,7.47
2022-10-09T20:07:21.777Z,6.87
2022-10-09T20:10:10.941Z,7.13
2022-10-09T20:12:59.834Z,9.63
2022-10-09T20:15:50.102Z,8.10
2022-10-09T20:18:41.997Z,11.30
2022-10-09T20:21:33.580Z,9.37
2022-10-09T20:24:22.495Z,11.53
2022-10-09T20:27:11.442Z,15.00
2022-10-09T20:30:00.339Z,14.53
2022-10-09T20:32:53.155Z,13.30
2022-10-09T20:35:46.597Z,14.67
2022-10-09T20:38:35.884Z,14.97
2022-10-09T20:41:25.253Z,12.90
2022-10-09T20:44:14.202Z,12.00
2022-10-09T20:47:03.064Z,12.93
2022-10-09T20:49:53.310Z,12.73
2022-10-09T20:52:42.135Z,11.07
2022-10-09T20:55:32.701Z,10.70
2022-10-09T20:58:21.521Z,9.87
2022-10-09T21:01:12.028Z,11.03
2022-10-09T21:04:00.921Z,10.80
2022-10-09T21:06:51.175Z,10.73
2022-10-09T21:09:40.076Z,9.40
2022-10-09T21:12:28.958Z,8.40
2022-10-09T21:15:17.888Z,7.83
2022-10-09T21:18:06.739Z,8.07
2022-10-09T21:20:55.579Z,7.60
2022-10-09T21:23:46.135Z,6.63
2022-10-09T21:26:35.822Z,6.80
2022-10-09T21:29:24.715Z,8.83
2022-10-09T21:32:13.627Z,6.80
2022-10-09T21:35:03.641Z,9.17
2022-10-09T21:37:52.533Z,11.20
2022-10-09T21:40:43.299Z,9.07
2022-10-09T21:43:32.126Z,6.90
2022-10-09T21:46:21.043Z,7.33
2022-10-09T21:49:13.264Z,12.07
2022-10-09T21:52:02.103Z,8.00
2022-10-09T21:54:50.944Z,5.97
2022-10-09T21:57:43.094Z,12.60
2022-10-09T22:00:33.977Z,6.73
2022-10-09T22:03:22.853Z,6.27
2022-10-09T22:06:18.621Z,7.20
2022-10-09T22:09:08.009Z,7.03
2022-10-09T22:11:57.118Z,6.93
2022-10-09T22:14:47.449Z,6.50
2022-10-09T22:17:36.278Z,6.37
2022-10-09T22:20:25.304Z,6.73
2022-10-09T22:23:14.772Z,8.17
2022-10-09T22:26:04.905Z,8.27
2022-10-09T22:28:53.842Z,8.53
2022-10-09T22:31:44.108Z,9.80
2022-10-09T22:34:33.116Z,6.27
2022-10-09T22:37:22.087Z,9.40
2022-10-09T22:40:11.373Z,5.77
2022-10-09T22:43:00.181Z,7.07
2022-10-09T22:45:49.101Z,8.17
2022-10-09T22:48:39.989Z,6.97
2022-10-09T22:51:29.665Z,6.37
2022-10-09T22:54:19.120Z,7.00
2022-10-09T22:57:08.034Z,8.43
2022-10-09T22:59:56.897Z,6.67
2022-10-09T23:02:45.740Z,6.60
2022-10-09T23:05:35.958Z,11.20
2022-10-09T23:08:24.798Z,8.03
2022-10-09T23:11:13.890Z,7.07
2022-10-09T23:14:02.814Z,6.67
2022-10-09T23:16:51.795Z,8.47
2022-10-09T23:19:40.733Z,5.90
2022-10-09T23:22:30.995Z,6.80
2022-10-09T23:25:19.819Z,11.10
2022-10-09T23:28:08.712Z,7.07
2022-10-09T23:31:02.017Z,6.23
2022-10-09T23:33:50.901Z,12.20
2022-10-09T23:36:39.825Z,6.90
2022-10-09T23:39:30.170Z,6.80
2022-10-09T23:42:18.966Z,7.63
2022-10-09T23:45:08.815Z,8.93
2022-10-09T23:47:57.626Z,8.23
2022-10-09T23:50:46.486Z,6.40
2022-10-09T23:53:35.372Z,7.47
2022-10-09T23:56:27.950Z,8.50
2022-10-09T23:59:16.895Z,6.03
